Latest Weather Observations for Naracoorte

IDS60801

Issued at 6:02 pm CST Saturday 23 May 2015 (issued every 30 minutes, with the page automatically refreshed every 10 minutes)

About weather observations | Map of weather stations | Latest weather observations for SA | Other Formats
Station Details ID: 026099 Name: NARACOORTE AERODROME Lat: -36.98 Lon: 140.73 Height: 49.72 m
Data from the previous 72 hours. | See also: Recent months at Naracoorte
Date/Time
CST
Temp
°C
App
Temp
°C
Dew
Point
Rel
Hum
%
Delta-T
°C
Wind Press
QNH
hPa
Press
MSL
hPa
Rain
since 9 am
mm
Dir
 
Spd
km/h
Gust
km/h
Spd
kts
Gust
kts
23/06:00pm 7.7 6.8 6.0 89 0.8 CALM 0 0 0 0 1030.5 1030.5 0.0
23/05:30pm 8.3 7.4 6.1 86 1.0 CALM 0 0 0 0 1030.4 1030.4 0.0
23/05:00pm 10.6 9.8 6.6 76 1.9 CALM 0 0 0 0 1030.3 1030.3 0.0
23/04:30pm 11.7 10.9 6.4 70 2.5 CALM 0 0 0 0 1030.3 1030.3 0.0
23/04:00pm 12.3 10.5 7.0 70 2.6 WSW 6 9 3 5 1030.4 1030.4 0.0
23/03:30pm 12.7 11.0 6.1 64 3.1 NW 4 7 2 4 1030.4 1030.4 0.0
23/03:00pm 13.0 11.1 6.6 65 3.0 W 6 11 3 6 1030.4 1030.4 0.0
23/02:30pm 12.9 11.3 6.3 64 3.1 SW 4 9 2 5 1030.5 1030.5 0.0
23/02:00pm 12.9 11.0 6.9 67 2.9 ENE 6 9 3 5 1030.5 1030.5 0.0
23/01:30pm 12.1 9.9 6.2 67 2.8 SW 7 11 4 6 1030.8 1030.8 0.0
23/01:00pm 11.9 10.3 6.2 68 2.7 WNW 4 9 2 5 1031.2 1031.3 0.0
23/12:30pm 12.1 11.2 6.2 67 2.8 CALM 0 6 0 3 1031.5 1031.6 0.0
23/12:00pm 10.7 9.4 5.9 72 2.2 W 2 7 1 4 1032.0 1032.1 0.0
23/11:30am 10.5 9.1 5.7 72 2.2 ENE 2 6 1 3 1032.2 1032.3 0.0
23/11:00am 11.0 9.4 6.4 73 2.1 E 4 9 2 5 1032.6 1032.7 0.0
23/10:30am 10.5 8.0 6.6 77 1.8 ENE 9 13 5 7 1032.9 1033.0 0.0
23/10:00am 8.8 6.3 6.4 85 1.1 S 9 11 5 6 1033.2 1033.3 0.0
23/09:30am 7.0 4.8 6.4 96 0.3 S 7 9 4 5 1033.5 1033.6 0.0
23/09:00am 5.1 3.9 4.7 97 0.2 CALM 0 6 0 3 1033.4 1033.5 0.0
23/08:30am 3.0 1.4 2.7 98 0.1 CALM 0 0 0 0 1033.5 1033.6 0.0
23/08:00am 1.3 -0.5 1.0 98 0.1 CALM 0 0 0 0 1033.5 1033.6 0.0
23/07:30am 0.9 -1.0 0.6 98 0.1 CALM 0 9 0 5 1033.2 1033.3 0.0
23/07:00am 0.3 -1.7 0.0 98 0.1 CALM 0 0 0 0 1032.8 1032.9 0.0
23/06:30am 0.7 -1.2 0.3 97 0.1 CALM 0 0 0 0 1032.6 1032.7 0.0
23/06:00am 0.9 -1.0 0.5 97 0.1 CALM 0 0 0 0 1032.5 1032.6 0.0
23/05:30am 1.6 -0.2 1.3 98 0.1 CALM 0 0 0 0 1032.3 1032.4 0.0
23/05:00am 1.0 -0.9 0.6 97 0.1 CALM 0 0 0 0 1032.2 1032.3 0.0
23/04:30am 2.0 0.3 1.6 97 0.2 CALM 0 0 0 0 1032.1 1032.2 0.0
23/04:00am 2.7 1.1 2.3 97 0.2 CALM 0 0 0 0 1032.1 1032.2 0.0
23/03:30am 2.4 0.7 1.8 96 0.2 CALM 0 0 0 0 1031.9 1032.0 0.0
23/03:00am 2.8 1.1 2.1 95 0.3 CALM 0 0 0 0 1031.9 1032.0 0.0
23/02:30am 2.4 0.6 1.5 94 0.3 CALM 0 0 0 0 1032.1 1032.2 0.0
23/02:00am 2.8 1.1 1.6 92 0.5 CALM 0 0 0 0 1032.5 1032.6 0.0
23/01:30am 4.1 2.5 2.6 90 0.6 CALM 0 4 0 2 1032.3 1032.4 0.0
23/01:00am 5.2 2.4 3.4 88 0.7 SE 7 9 4 5 1032.3 1032.4 0.0
23/12:30am 6.3 3.2 3.6 83 1.1 SE 9 9 5 5 1032.3 1032.4 0.0
23/12:00am 8.1 4.0 4.5 78 1.6 ESE 15 20 8 11 1032.5 1032.6 0.0
 
Date/Time
CST
Temp
°C
App
Temp
°C
Dew
Point
Rel
Hum
%
Delta-T
°C
Wind Press
QNH
hPa
Press
MSL
hPa
Rain
since 9 am
mm
Dir
 
Spd
km/h
Gust
km/h
Spd
kts
Gust
kts
22/11:30pm 8.9 4.5 4.9 76 1.8 ESE 17 20 9 11 1032.5 1032.6 0.0
22/11:00pm 9.3 5.4 5.3 76 1.8 ESE 15 22 8 12 1032.5 1032.6 0.0
22/10:30pm 9.7 5.4 5.1 73 2.1 SE 17 22 9 12 1032.5 1032.6 0.0
22/10:00pm 9.7 6.2 5.3 74 2.0 ESE 13 17 7 9 1032.6 1032.7 0.0
22/09:30pm 10.0 5.2 5.4 73 2.1 ESE 20 26 11 14 1032.5 1032.6 0.0
22/09:00pm 9.9 5.7 5.5 74 2.0 SE 17 22 9 12 1032.4 1032.5 0.0
22/08:30pm 10.0 6.2 5.6 74 2.0 SE 15 20 8 11 1032.5 1032.6 0.0
22/08:00pm 10.2 6.4 5.8 74 2.0 SE 15 20 8 11 1032.5 1032.6 0.0
22/07:30pm 10.4 6.2 5.8 73 2.1 SE 17 20 9 11 1032.5 1032.6 0.0
22/07:00pm 10.5 5.7 5.7 72 2.2 SSE 20 24 11 13 1032.3 1032.4 0.0
22/06:30pm 10.8 6.0 5.8 71 2.3 SE 20 26 11 14 1032.1 1032.2 0.0
22/06:00pm 10.8 6.2 5.8 71 2.3 SE 19 24 10 13 1032.2 1032.3 0.0
22/05:30pm 11.0 6.4 5.7 70 2.4 SE 19 26 10 14 1031.8 1031.9 0.0
22/05:00pm 11.0 7.0 6.6 74 2.1 SSE 17 22 9 12 1031.8 1031.9 0.0
22/04:30pm 11.5 6.9 6.4 71 2.4 SE 20 28 11 15 1031.7 1031.8 0.0
22/04:00pm 11.7 6.7 6.6 71 2.4 SSE 22 28 12 15 1031.5 1031.6 0.0
22/03:30pm 12.0 7.4 6.3 68 2.7 SE 20 26 11 14 1031.3 1031.4 0.0
22/03:00pm 12.3 6.7 7.0 70 2.5 SSE 26 32 14 17 1031.2 1031.3 0.0
22/02:30pm 12.4 7.0 6.2 66 2.9 SSE 24 30 13 16 1031.1 1031.2 0.0
22/02:00pm 12.8 7.5 7.0 68 2.8 SSE 24 32 13 17 1030.8 1030.8 0.0
22/01:30pm 12.9 7.5 6.5 65 3.0 SE 24 33 13 18 1030.9 1030.9 0.0
22/01:00pm 13.4 8.0 6.5 63 3.3 SSE 24 33 13 18 1030.8 1030.8 0.0
22/12:30pm 13.6 8.8 7.2 65 3.1 SE 22 28 12 15 1031.0 1031.0 0.0
22/12:00pm 13.8 9.1 7.6 66 3.0 SSE 22 30 12 16 1031.3 1031.4 0.0
22/11:30am 13.4 8.2 7.4 67 2.9 SSE 24 32 13 17 1031.8 1031.9 0.0
22/11:00am 13.0 7.5 7.5 69 2.7 SSE 26 32 14 17 1031.9 1032.0 0.0
22/10:30am 12.3 7.3 8.0 75 2.1 SSE 24 30 13 16 1032.0 1032.1 0.0
22/10:00am 11.2 6.9 7.9 80 1.6 SSE 20 24 11 13 1032.0 1032.1 0.0
22/09:30am 9.4 5.5 7.3 87 1.0 SSE 17 20 9 11 1031.7 1031.8 0.0
22/09:00am 7.8 4.2 6.6 92 0.5 SSE 15 17 8 9 1031.5 1031.6 0.2
22/08:30am 6.8 3.5 6.4 97 0.2 SSE 13 17 7 9 1031.4 1031.5 0.2
22/08:00am 5.5 2.3 5.2 98 0.1 SSE 11 13 6 7 1031.1 1031.2 0.2
22/07:30am 3.5 0.0 3.4 99 0.0 SSE 11 13 6 7 1031.0 1031.0 0.2
22/07:00am 3.2 -0.4 3.1 99 0.0 SSE 11 11 6 6 1030.7 1030.7 0.2
22/06:30am 3.8 0.0 3.7 99 0.0 SSE 13 13 7 7 1030.3 1030.3 0.2
22/06:00am 4.3 0.5 4.0 98 0.1 SSE 13 15 7 8 1030.0 1030.0 0.2
22/05:30am 5.0 1.3 4.7 98 0.1 SSE 13 15 7 8 1029.6 1029.6 0.2
22/05:00am 4.9 1.2 4.6 98 0.1 SSE 13 13 7 7 1029.5 1029.5 0.2
22/04:30am 5.8 2.3 5.5 98 0.1 SSE 13 17 7 9 1029.4 1029.4 0.2
22/04:00am 5.6 2.4 5.3 98 0.1 SSE 11 13 6 7 1029.3 1029.3 0.2
22/03:30am 5.3 2.5 5.0 98 0.1 SSE 9 11 5 6 1029.4 1029.4 0.0
22/03:00am 4.4 1.0 4.1 98 0.1 SSE 11 13 6 7 1029.3 1029.3 0.0
22/02:30am 4.4 1.4 4.1 98 0.1 S 9 9 5 5 1029.3 1029.3 0.0
22/02:00am 5.4 2.2 5.1 98 0.1 S 11 13 6 7 1029.1 1029.1 0.0
22/01:30am 6.6 3.6 6.2 97 0.2 SSE 11 13 6 7 1028.9 1028.9 0.0
22/01:00am 7.3 4.1 6.9 97 0.2 SSE 13 15 7 8 1028.9 1028.9 0.0
22/12:30am 7.3 4.5 6.9 97 0.2 SSE 11 13 6 7 1029.1 1029.1 0.0
22/12:00am 7.9 4.9 7.5 97 0.2 SSE 13 15 7 8 1029.1 1029.1 0.0
 
Date/Time
CST
Temp
°C
App
Temp
°C
Dew
Point
Rel
Hum
%
Delta-T
°C
Wind Press
QNH
hPa
Press
MSL
hPa
Rain
since 9 am
mm
Dir
 
Spd
km/h
Gust
km/h
Spd
kts
Gust
kts
21/11:30pm 8.1 5.1 7.7 97 0.2 SSE 13 15 7 8 1028.9 1028.9 0.0
21/11:00pm 7.4 4.6 6.8 96 0.3 SSE 11 13 6 7 1029.0 1029.0 0.0
21/10:30pm 7.4 4.6 6.8 96 0.3 SSE 11 13 6 7 1028.9 1028.9 0.0
21/10:00pm 7.8 4.7 7.1 95 0.3 SSE 13 17 7 9 1028.9 1028.9 0.0
21/09:30pm 8.8 6.3 8.2 96 0.3 SSE 11 13 6 7 1028.8 1028.8 0.0
21/09:00pm 8.9 6.0 8.1 95 0.4 SSE 13 13 7 7 1028.6 1028.6 0.0
21/08:30pm 9.4 6.6 8.6 95 0.4 S 13 17 7 9 1028.4 1028.4 0.0
21/08:00pm 9.6 7.2 8.8 95 0.4 S 11 15 6 8 1028.2 1028.2 0.0
21/07:30pm 8.7 6.5 7.9 95 0.4 SSE 9 11 5 6 1028.1 1028.1 0.0
21/07:00pm 8.4 5.3 7.3 93 0.5 S 13 15 7 8 1027.8 1027.8 0.0
21/06:30pm 9.3 6.4 8.1 92 0.6 S 13 15 7 8 1027.6 1027.6 0.0
21/06:00pm 10.2 7.4 8.6 90 0.8 SSE 13 15 7 8 1027.3 1027.3 0.0
21/05:30pm 11.2 8.1 8.9 86 1.1 S 15 17 8 9 1026.9 1026.9 0.0
21/05:00pm 12.2 8.4 9.0 81 1.6 S 19 22 10 12 1026.5 1026.5 0.0
21/04:30pm 11.9 8.9 9.3 84 1.3 SSW 15 20 8 11 1026.3 1026.3 0.0
21/04:00pm 12.7 8.7 9.2 79 1.8 S 20 26 11 14 1026.1 1026.1 0.0
21/03:30pm 14.0 9.9 8.8 71 2.6 S 20 24 11 13 1025.8 1025.8 0.0
21/03:00pm 13.7 9.2 8.5 71 2.6 S 22 28 12 15 1025.7 1025.7 0.0
21/02:30pm 13.3 8.7 8.0 70 2.6 SSW 22 30 12 16 1025.6 1025.6 0.0
21/02:00pm 13.3 9.2 8.6 73 2.4 S 20 28 11 15 1025.4 1025.4 0.0
21/01:30pm 13.1 9.1 8.2 72 2.4 SSW 19 28 10 15 1025.6 1025.6 0.0
21/01:00pm 13.5 9.4 7.7 68 2.9 S 19 24 10 13 1025.6 1025.6 0.0
21/12:30pm 13.0 9.3 7.9 71 2.5 SSE 17 22 9 12 1025.9 1025.9 0.0
21/12:00pm 12.2 8.0 7.3 72 2.4 SSW 19 24 10 13 1026.4 1026.4 0.0
21/11:30am 12.9 8.9 8.2 73 2.3 S 19 26 10 14 1026.7 1026.7 0.0
21/11:00am 12.2 8.5 7.9 75 2.1 S 17 22 9 12 1027.0 1027.0 0.0
21/10:30am 11.6 8.6 7.7 77 1.9 S 13 20 7 11 1027.1 1027.1 0.0
21/10:00am 11.1 8.2 8.0 81 1.5 S 13 17 7 9 1026.9 1026.9 0.0
21/09:30am 9.9 6.5 7.5 85 1.1 SSW 15 19 8 10 1026.8 1026.8 0.0
21/09:00am 9.2 7.1 8.1 93 0.5 SSW 9 11 5 6 1026.6 1026.6 0.4
21/08:30am 7.7 5.6 6.6 93 0.5 WSW 7 9 4 5 1026.3 1026.3 0.4
21/08:00am 6.8 5.8 5.7 93 0.5 CALM 0 0 0 0 1026.0 1026.0 0.4
21/07:30am 6.8 4.1 5.7 93 0.5 SW 9 11 5 6 1025.8 1025.8 0.4
21/07:00am 6.7 4.6 5.8 94 0.4 SW 6 15 3 8 1025.5 1025.5 0.4
21/06:30am 6.2 3.7 4.8 91 0.6 SSE 7 9 4 5 1025.1 1025.1 0.2
21/06:00am 7.4 4.4 5.9 90 0.7 SW 11 13 6 7 1024.7 1024.7 0.2
21/05:30am 7.4 4.8 6.3 93 0.5 SSW 9 13 5 7 1024.6 1024.6 0.2
21/05:00am 7.1 6.2 6.2 94 0.4 CALM 0 0 0 0 1024.4 1024.4 0.2
21/04:30am 7.0 6.1 6.1 94 0.4 CALM 0 4 0 2 1024.2 1024.2 0.2
21/04:00am 6.9 4.7 6.0 94 0.4 SSW 7 9 4 5 1024.0 1024.0 0.2
21/03:30am 6.5 4.2 5.8 95 0.3 WSW 7 9 4 5 1023.9 1023.9 0.2
21/03:00am 6.2 4.8 5.5 95 0.3 WSW 2 7 1 4 1023.8 1023.8 0.2
21/02:30am 5.6 4.5 5.0 96 0.3 CALM 0 0 0 0 1023.7 1023.7 0.2
21/02:00am 5.1 2.7 4.4 95 0.3 S 6 7 3 4 1023.8 1023.8 0.2
21/01:30am 5.2 3.6 4.6 96 0.3 SSW 2 6 1 3 1023.6 1023.6 0.2
21/01:00am 4.8 2.2 4.1 95 0.3 S 7 9 4 5 1023.6 1023.6 0.2
21/12:30am 5.6 2.0 4.9 95 0.3 S 13 15 7 8 1023.5 1023.5 0.2
21/12:00am 4.8 1.8 4.2 96 0.3 S 9 11 5 6 1023.5 1023.5 0.2
 
Date/Time
CST
Temp
°C
App
Temp
°C
Dew
Point
Rel
Hum
%
Delta-T
°C
Wind Press
QNH
hPa
Press
MSL
hPa
Rain
since 9 am
mm
Dir
 
Spd
km/h
Gust
km/h
Spd
kts
Gust
kts
20/11:30pm 4.7 1.7 4.1 96 0.3 SSE 9 9 5 5 1023.3 1023.3 0.2
20/11:00pm 5.0 2.1 4.4 96 0.3 S 9 11 5 6 1023.2 1023.2 0.2
20/10:30pm 5.3 2.4 4.6 95 0.3 S 9 9 5 5 1023.0 1023.0 0.2
20/10:00pm 5.4 1.7 4.5 94 0.4 SSW 13 13 7 7 1023.0 1023.0 0.2
20/09:30pm 6.5 3.4 5.5 93 0.4 S 11 13 6 7 1022.7 1022.7 0.2
20/09:00pm 8.0 5.2 6.8 92 0.6 S 11 13 6 7 1022.4 1022.4 0.2
20/08:30pm 8.2 5.4 6.8 91 0.6 S 11 15 6 8 1022.2 1022.2 0.2
20/08:00pm 8.7 5.2 7.0 89 0.8 S 15 19 8 10 1022.0 1022.0 0.2
20/07:30pm 8.7 5.1 6.8 88 0.9 S 15 19 8 10 1021.8 1021.8 0.2
20/07:00pm 9.1 5.2 6.9 86 1.0 S 17 20 9 11 1021.6 1021.6 0.2
20/06:30pm 9.6 5.1 7.0 84 1.2 S 20 24 11 13 1021.1 1021.1 0.2

Other Formats:

Comma delimited format used in spreadsheet applications
http://www.bom.gov.au/fwo/IDS60801/IDS60801.94820.axf

JavaScript Object Notation format (JSON) in row-major order
http://www.bom.gov.au/fwo/IDS60801/IDS60801.94820.json